Terminal Aerodrome Forecast
Issued by NWS Cleveland, OH

Home | Current Version | Previous Version | Graphics & Text | Print | Product List | Glossary On
Versions: 1 2 3 4 5 6 7 8 9 10 11 12 13 14 15 16 17
224
FTUS41 KCLE 232337
TAFYNG
TAF
KYNG 232337Z 2400/2424 02008KT P6SM SCT015 BKN100
     FM240200 02010KT P6SM BKN008 OVC015
     FM241300 05012KT P6SM SCT015 OVC025
     FM241900 02010KT P6SM SCT025 BKN035=

USA.gov is the U.S. government's official web portal to all federal, state and local government web resources and services.